Time,TemperatureF,DewpointF,PressureIn,WindDirection,WindDirectionDegrees,WindSpeedMPH,WindSpeedGustMPH,Humidity,HourlyPrecipIn,Conditions,Clouds,dailyrainin,SoftwareType,DateUTC
2013-07-10 00:01:00,76.0,70.0,30.11,ENE,78,4.0,6.0,83,-99.99,,,-99.99,,2013-07-10 04:01:00,
2013-07-10 00:11:00,75.0,70.0,30.12,ENE,78,4.0,7.0,84,-99.99,,,-99.99,,2013-07-10 04:11:00,
2013-07-10 00:22:00,75.0,70.0,30.12,ENE,78,4.0,7.0,84,-99.99,,,-99.99,,2013-07-10 04:22:00,
2013-07-10 00:33:00,75.0,70.0,30.11,East,85,5.0,7.0,85,-99.99,,,-99.99,,2013-07-10 04:33:00,
2013-07-10 00:43:00,75.0,70.0,30.11,East,91,6.0,8.0,85,-99.99,,,-99.99,,2013-07-10 04:43:00,
2013-07-10 01:02:00,75.0,70.0,30.11,ENE,60,3.0,6.0,85,-99.99,,,-99.99,,2013-07-10 05:02:00,
2013-07-10 01:12:00,75.0,70.0,30.11,ENE,60,3.0,6.0,85,-99.99,,,-99.99,,2013-07-10 05:12:00,
2013-07-10 01:22:00,75.0,70.0,30.11,ENE,60,3.0,6.0,85,-99.99,,,-99.99,,2013-07-10 05:22:00,
2013-07-10 01:53:00,73.0,70.0,30.10,SW,215,1.0,2.0,88,-99.99,,,-99.99,,2013-07-10 05:53:00,
2013-07-10 02:01:00,73.0,70.0,30.09,SE,124,1.0,2.0,89,-99.99,,,-99.99,,2013-07-10 06:01:00,
2013-07-10 02:11:00,73.0,70.0,30.09,SE,124,1.0,2.0,89,-99.99,,,-99.99,,2013-07-10 06:11:00,
2013-07-10 03:01:00,72.0,69.0,30.09,SSE,166,1.0,1.0,90,-99.99,,,-99.99,,2013-07-10 07:01:00,
2013-07-10 03:22:00,72.0,69.0,30.09,NE,53,2.0,3.0,90,-99.99,,,-99.99,,2013-07-10 07:22:00,
2013-07-10 03:43:00,72.0,69.0,30.08,East,83,3.0,3.0,91,-99.99,,,-99.99,,2013-07-10 07:43:00,
2013-07-10 04:02:00,72.0,69.0,30.08,SW,217,2.0,3.0,91,-99.99,,,-99.99,,2013-07-10 08:02:00,
2013-07-10 04:23:00,72.0,69.0,30.08,NNW,332,1.0,3.0,91,-99.99,,,-99.99,,2013-07-10 08:23:00,
2013-07-10 04:33:00,72.0,69.0,30.08,NNW,332,1.0,3.0,91,-99.99,,,-99.99,,2013-07-10 08:33:00,
2013-07-10 04:42:00,72.0,69.0,30.08,NW,317,2.0,4.0,91,-99.99,,,-99.99,,2013-07-10 08:42:00,
2013-07-10 04:53:00,71.0,69.0,30.08,WSW,252,2.0,4.0,91,-99.99,,,-99.99,,2013-07-10 08:53:00,
2013-07-10 05:02:00,71.0,68.0,30.08,NE,40,2.0,2.0,91,-99.99,,,-99.99,,2013-07-10 09:02:00,
2013-07-10 05:12:00,71.0,68.0,30.08,NE,40,2.0,2.0,91,-99.99,,,-99.99,,2013-07-10 09:12:00,
2013-07-10 05:22:00,71.0,68.0,30.08,NE,40,2.0,2.0,91,-99.99,,,-99.99,,2013-07-10 09:22:00,
2013-07-10 05:42:00,71.0,68.0,30.08,NE,55,2.0,3.0,92,-99.99,,,-99.99,,2013-07-10 09:42:00,
2013-07-10 06:01:00,70.0,68.0,30.08,NNE,16,3.0,4.0,92,-99.99,,,-99.99,,2013-07-10 10:01:00,
2013-07-10 06:13:00,70.0,68.0,30.07,NE,50,2.0,3.0,92,-99.99,,,-99.99,,2013-07-10 10:13:00,
2013-07-10 06:32:00,70.0,68.0,30.07,NNE,23,2.0,2.0,92,-99.99,,,-99.99,,2013-07-10 10:32:00,
2013-07-10 06:50:00,-999.0,-99.9,30.07,SSE,152,3.0,4.0,-999,-99.99,,,-99.99,,2013-07-10 10:50:00,
2013-07-10 07:00:00,-999.0,-99.9,30.07,ESE,104,2.0,3.0,-999,-99.99,,,-99.99,,2013-07-10 11:00:00,
2013-07-10 07:11:00,70.0,68.0,30.07,SW,234,1.0,2.0,92,-99.99,,,-99.99,,2013-07-10 11:11:00,
2013-07-10 07:23:00,71.0,68.0,30.07,South,180,1.0,2.0,92,-99.99,,,-99.99,,2013-07-10 11:23:00,
2013-07-10 07:33:00,71.0,68.0,30.07,South,180,1.0,2.0,92,-99.99,,,-99.99,,2013-07-10 11:33:00,
2013-07-10 07:52:00,71.0,69.0,30.08,West,260,1.0,1.0,92,-99.99,,,-99.99,,2013-07-10 11:52:00,
2013-07-10 08:02:00,71.0,69.0,30.08,West,260,1.0,1.0,92,-99.99,,,-99.99,,2013-07-10 12:02:00,
2013-07-10 08:11:00,73.0,71.0,30.09,WNW,295,2.0,3.0,92,-99.99,,,-99.99,,2013-07-10 12:11:00,
2013-07-10 08:30:00,78.0,74.0,30.09,ENE,73,2.0,4.0,87,-99.99,,,-99.99,,2013-07-10 12:30:00,
2013-07-10 08:33:00,73.0,71.0,30.09,West,275,2.0,3.0,92,-99.99,,,-99.99,,2013-07-10 12:33:00,
2013-07-10 08:43:00,74.0,72.0,30.09,ENE,75,1.0,2.0,92,-99.99,,,-99.99,,2013-07-10 12:43:00,
2013-07-10 08:53:00,76.0,73.0,30.09,East,87,3.0,5.0,91,-99.99,,,-99.99,,2013-07-10 12:53:00,
2013-07-10 09:11:00,78.0,74.0,30.09,ENE,73,2.0,4.0,87,-99.99,,,-99.99,,2013-07-10 13:11:00,
2013-07-10 09:22:00,78.0,74.0,30.09,ENE,73,2.0,4.0,87,-99.99,,,-99.99,,2013-07-10 13:22:00,
2013-07-10 10:01:00,81.0,72.0,30.11,East,83,3.0,5.0,72,-99.99,,,-99.99,,2013-07-10 14:01:00,
2013-07-10 10:11:00,81.0,72.0,30.11,East,83,3.0,5.0,72,-99.99,,,-99.99,,2013-07-10 14:11:00,
2013-07-10 10:53:00,82.0,69.0,30.11,East,93,2.0,6.0,64,-99.99,,,-99.99,,2013-07-10 14:53:00,
2013-07-10 11:11:00,83.0,69.0,30.11,East,99,5.0,7.0,62,-99.99,,,-99.99,,2013-07-10 15:11:00,
2013-07-10 11:22:00,83.0,69.0,30.11,East,99,5.0,7.0,62,-99.99,,,-99.99,,2013-07-10 15:22:00,
2013-07-10 12:11:00,85.0,70.0,30.11,ESE,113,5.0,10.0,60,-99.99,,,-99.99,,2013-07-10 16:11:00,
2013-07-10 12:33:00,85.0,69.0,30.11,East,79,5.0,8.0,57,-99.99,,,-99.99,,2013-07-10 16:33:00,
2013-07-10 12:44:00,86.0,69.0,30.11,ENE,65,6.0,9.0,57,-99.99,,,-99.99,,2013-07-10 16:44:00,
2013-07-10 13:02:00,85.0,68.0,30.10,SE,125,3.0,7.0,55,-99.99,,,-99.99,,2013-07-10 17:02:00,
2013-07-10 13:12:00,87.0,67.0,30.10,SE,143,6.0,11.0,51,-99.99,,,-99.99,,2013-07-10 17:12:00,
2013-07-10 13:32:00,87.0,67.0,30.10,SE,142,6.0,9.0,52,-99.99,,,-99.99,,2013-07-10 17:32:00,
2013-07-10 13:43:00,87.0,67.0,30.10,SE,142,6.0,9.0,52,-99.99,,,-99.99,,2013-07-10 17:43:00,
2013-07-10 14:02:00,87.0,68.0,30.09,East,85,5.0,11.0,52,-99.99,,,-99.99,,2013-07-10 18:02:00,
2013-07-10 14:11:00,87.0,69.0,30.08,ENE,74,6.0,10.0,53,-99.99,,,-99.99,,2013-07-10 18:11:00,
2013-07-10 14:22:00,87.0,69.0,30.08,ENE,74,6.0,10.0,53,-99.99,,,-99.99,,2013-07-10 18:22:00,
2013-07-10 15:11:00,87.0,68.0,30.05,ENE,67,6.0,9.0,52,-99.99,,,-99.99,,2013-07-10 19:11:00,
2013-07-10 15:32:00,88.0,68.0,30.05,ESE,102,6.0,9.0,50,-99.99,,,-99.99,,2013-07-10 19:32:00,
2013-07-10 15:42:00,89.0,67.0,30.05,SE,133,6.0,10.0,48,-99.99,,,-99.99,,2013-07-10 19:42:00,
2013-07-10 16:11:00,89.0,66.0,30.04,SE,128,5.0,10.0,46,-99.99,,,-99.99,,2013-07-10 20:11:00,
2013-07-10 16:22:00,90.0,65.0,30.03,SSE,147,7.0,11.0,43,-99.99,,,-99.99,,2013-07-10 20:22:00,
2013-07-10 16:32:00,90.0,65.0,30.03,SSE,147,7.0,11.0,43,-99.99,,,-99.99,,2013-07-10 20:32:00,
2013-07-10 17:01:00,84.0,71.0,30.02,NE,40,6.0,11.0,65,-99.99,,,-99.99,,2013-07-10 21:01:00,
2013-07-10 17:11:00,84.0,71.0,30.02,NE,40,6.0,11.0,65,-99.99,,,-99.99,,2013-07-10 21:11:00,
2013-07-10 17:32:00,83.0,72.0,30.01,SE,137,7.0,11.0,69,-99.99,,,-99.99,,2013-07-10 21:32:00,
2013-07-10 17:52:00,88.0,68.0,30.00,ESE,104,8.0,18.0,51,-99.99,,,-99.99,,2013-07-10 21:52:00,
2013-07-10 18:11:00,88.0,68.0,30.00,East,99,9.0,14.0,51,-99.99,,,-99.99,,2013-07-10 22:11:00,
2013-07-10 18:21:00,88.0,68.0,30.01,East,101,9.0,18.0,51,-99.99,,,-99.99,,2013-07-10 22:21:00,
2013-07-10 18:33:00,88.0,68.0,30.01,East,101,9.0,18.0,51,-99.99,,,-99.99,,2013-07-10 22:33:00,
2013-07-10 18:43:00,85.0,70.0,30.01,SE,125,13.0,21.0,59,-99.99,,,-99.99,,2013-07-10 22:43:00,
2013-07-10 18:53:00,84.0,70.0,30.01,ESE,121,12.0,19.0,61,-99.99,,,-99.99,,2013-07-10 22:53:00,
2013-07-10 19:01:00,84.0,68.0,30.01,ESE,119,12.0,18.0,58,-99.99,,,-99.99,,2013-07-10 23:01:00,
2013-07-10 19:22:00,84.0,68.0,30.01,ESE,117,11.0,18.0,57,-99.99,,,-99.99,,2013-07-10 23:22:00,
2013-07-10 19:32:00,84.0,68.0,30.01,ESE,117,11.0,18.0,57,-99.99,,,-99.99,,2013-07-10 23:32:00,
2013-07-10 19:43:00,84.0,68.0,30.01,ESE,117,11.0,18.0,57,-99.99,,,-99.99,,2013-07-10 23:43:00,
2013-07-10 19:52:00,83.0,69.0,30.01,ESE,120,8.0,13.0,63,-99.99,,,-99.99,,2013-07-10 23:52:00,
2013-07-10 20:11:00,83.0,69.0,30.01,SE,125,8.0,11.0,62,-99.99,,,-99.99,,2013-07-11 00:11:00,
2013-07-10 20:22:00,83.0,69.0,30.01,SE,125,8.0,11.0,62,-99.99,,,-99.99,,2013-07-11 00:22:00,
2013-07-10 20:32:00,83.0,69.0,30.01,SE,125,8.0,11.0,62,-99.99,,,-99.99,,2013-07-11 00:32:00,
2013-07-10 20:52:00,80.0,70.0,30.02,SE,125,6.0,10.0,71,-99.99,,,-99.99,,2013-07-11 00:52:00,
2013-07-10 21:01:00,79.0,70.0,30.01,ESE,117,7.0,11.0,72,-99.99,,,-99.99,,2013-07-11 01:01:00,
2013-07-10 21:22:00,79.0,70.0,30.01,SE,129,7.0,11.0,74,-99.99,,,-99.99,,2013-07-11 01:22:00,
2013-07-10 21:32:00,79.0,70.0,30.01,SE,129,7.0,11.0,74,-99.99,,,-99.99,,2013-07-11 01:32:00,
2013-07-10 21:52:00,78.0,71.0,30.02,ESE,115,5.0,8.0,78,-99.99,,,-99.99,,2013-07-11 01:52:00,
2013-07-10 22:02:00,78.0,70.0,30.03,SE,126,5.0,7.0,78,-99.99,,,-99.99,,2013-07-11 02:02:00,
2013-07-10 22:11:00,78.0,70.0,30.03,SE,126,5.0,7.0,78,-99.99,,,-99.99,,2013-07-11 02:11:00,
2013-07-10 22:22:00,78.0,70.0,30.03,SE,126,5.0,7.0,78,-99.99,,,-99.99,,2013-07-11 02:22:00,
2013-07-10 22:43:00,77.0,71.0,30.04,ESE,114,5.0,7.0,79,-99.99,,,-99.99,,2013-07-11 02:43:00,
2013-07-10 23:11:00,77.0,71.0,30.05,ESE,116,5.0,6.0,81,-99.99,,,-99.99,,2013-07-11 03:11:00,
2013-07-10 23:22:00,77.0,71.0,30.04,SE,125,3.0,6.0,82,-99.99,,,-99.99,,2013-07-11 03:22:00,
2013-07-10 23:33:00,77.0,71.0,30.04,SE,125,3.0,6.0,82,-99.99,,,-99.99,,2013-07-11 03:33:00,
2013-07-10 23:42:00,77.0,70.0,30.05,SE,142,5.0,8.0,79,-99.99,,,-99.99,,2013-07-11 03:42:00,
2013-07-10 23:53:00,77.0,70.0,30.05,SE,142,5.0,8.0,79,-99.99,,,-99.99,,2013-07-11 03:53:00,